sensor_id;sensor_type;location;lat;lon;timestamp;P1;durP1;ratioP1;P2;durP2;ratioP2
50355;SDS011;36264;51.296;-0.602;2022-12-28T00:00:21;0.45;;;0.45;;
50355;SDS011;36264;51.296;-0.602;2022-12-28T00:02:47;0.50;;;0.50;;
50355;SDS011;36264;51.296;-0.602;2022-12-28T00:05:12;1.73;;;0.80;;
50355;SDS011;36264;51.296;-0.602;2022-12-28T00:07:37;0.73;;;0.70;;
50355;SDS011;36264;51.296;-0.602;2022-12-28T00:10:03;0.80;;;0.52;;
50355;SDS011;36264;51.296;-0.602;2022-12-28T00:12:29;0.40;;;0.40;;
50355;SDS011;36264;51.296;-0.602;2022-12-28T00:14:56;1.20;;;0.68;;
50355;SDS011;36264;51.296;-0.602;2022-12-28T00:17:22;1.77;;;0.70;;
50355;SDS011;36264;51.296;-0.602;2022-12-28T00:19:48;1.65;;;0.70;;
50355;SDS011;36264;51.296;-0.602;2022-12-28T00:22:13;0.20;;;0.20;;
50355;SDS011;36264;51.296;-0.602;2022-12-28T00:24:38;1.55;;;0.80;;
50355;SDS011;36264;51.296;-0.602;2022-12-28T00:27:04;0.57;;;0.57;;
50355;SDS011;36264;51.296;-0.602;2022-12-28T00:29:29;1.10;;;0.60;;
50355;SDS011;36264;51.296;-0.602;2022-12-28T00:31:55;0.30;;;0.30;;
50355;SDS011;36264;51.296;-0.602;2022-12-28T00:34:20;0.55;;;0.50;;
50355;SDS011;36264;51.296;-0.602;2022-12-28T00:36:48;0.68;;;0.50;;
50355;SDS011;36264;51.296;-0.602;2022-12-28T00:39:15;1.55;;;0.70;;
50355;SDS011;36264;51.296;-0.602;2022-12-28T00:41:40;0.50;;;0.50;;
50355;SDS011;36264;51.296;-0.602;2022-12-28T00:44:05;0.40;;;0.30;;
50355;SDS011;36264;51.296;-0.602;2022-12-28T00:46:31;2.33;;;0.60;;
50355;SDS011;36264;51.296;-0.602;2022-12-28T00:48:56;1.20;;;0.45;;
50355;SDS011;36264;51.296;-0.602;2022-12-28T00:51:21;0.52;;;0.40;;
50355;SDS011;36264;51.296;-0.602;2022-12-28T00:53:47;1.70;;;0.55;;
50355;SDS011;36264;51.296;-0.602;2022-12-28T00:56:16;0.40;;;0.40;;
50355;SDS011;36264;51.296;-0.602;2022-12-28T00:58:44;1.13;;;0.60;;
50355;SDS011;36264;51.296;-0.602;2022-12-28T01:01:12;0.57;;;0.50;;
50355;SDS011;36264;51.296;-0.602;2022-12-28T01:03:39;0.30;;;0.28;;
50355;SDS011;36264;51.296;-0.602;2022-12-28T01:06:05;1.38;;;0.47;;
50355;SDS011;36264;51.296;-0.602;2022-12-28T01:08:31;0.98;;;0.32;;
50355;SDS011;36264;51.296;-0.602;2022-12-28T01:10:56;0.60;;;0.20;;
50355;SDS011;36264;51.296;-0.602;2022-12-28T01:13:22;0.85;;;0.55;;
50355;SDS011;36264;51.296;-0.602;2022-12-28T01:15:47;0.40;;;0.40;;
50355;SDS011;36264;51.296;-0.602;2022-12-28T01:18:12;0.45;;;0.32;;
50355;SDS011;36264;51.296;-0.602;2022-12-28T01:20:39;0.32;;;0.30;;
50355;SDS011;36264;51.296;-0.602;2022-12-28T01:23:04;0.90;;;0.50;;
50355;SDS011;36264;51.296;-0.602;2022-12-28T01:25:31;1.63;;;0.60;;
50355;SDS011;36264;51.296;-0.602;2022-12-28T01:27:57;1.23;;;0.50;;
50355;SDS011;36264;51.296;-0.602;2022-12-28T01:30:22;0.50;;;0.50;;
50355;SDS011;36264;51.296;-0.602;2022-12-28T01:32:47;0.75;;;0.50;;
50355;SDS011;36264;51.296;-0.602;2022-12-28T01:35:13;1.23;;;0.45;;
50355;SDS011;36264;51.296;-0.602;2022-12-28T01:37:38;0.63;;;0.30;;
50355;SDS011;36264;51.296;-0.602;2022-12-28T01:40:04;1.00;;;0.57;;
50355;SDS011;36264;51.296;-0.602;2022-12-28T01:42:30;0.98;;;0.40;;
50355;SDS011;36264;51.296;-0.602;2022-12-28T01:44:56;0.75;;;0.35;;
50355;SDS011;36264;51.296;-0.602;2022-12-28T01:47:25;0.73;;;0.40;;
50355;SDS011;36264;51.296;-0.602;2022-12-28T01:50:07;0.93;;;0.50;;
50355;SDS011;36264;51.296;-0.602;2022-12-28T01:52:40;0.73;;;0.50;;
50355;SDS011;36264;51.296;-0.602;2022-12-28T01:55:19;1.10;;;0.40;;
50355;SDS011;36264;51.296;-0.602;2022-12-28T01:57:53;0.90;;;0.40;;
50355;SDS011;36264;51.296;-0.602;2022-12-28T02:00:24;0.90;;;0.30;;
50355;SDS011;36264;51.296;-0.602;2022-12-28T02:05:23;1.10;;;0.60;;
50355;SDS011;36264;51.296;-0.602;2022-12-28T02:08:01;0.98;;;0.40;;
50355;SDS011;36264;51.296;-0.602;2022-12-28T02:10:32;0.73;;;0.38;;
50355;SDS011;36264;51.296;-0.602;2022-12-28T02:12:59;0.40;;;0.38;;
50355;SDS011;36264;51.296;-0.602;2022-12-28T02:15:25;1.17;;;0.52;;
50355;SDS011;36264;51.296;-0.602;2022-12-28T02:17:50;0.57;;;0.50;;
50355;SDS011;36264;51.296;-0.602;2022-12-28T02:20:16;0.82;;;0.40;;
50355;SDS011;36264;51.296;-0.602;2022-12-28T02:25:45;1.83;;;0.65;;
50355;SDS011;36264;51.296;-0.602;2022-12-28T02:32:09;3.42;;;0.50;;
50355;SDS011;36264;51.296;-0.602;2022-12-28T02:34:37;1.23;;;0.50;;
50355;SDS011;36264;51.296;-0.602;2022-12-28T02:37:20;0.40;;;0.40;;
50355;SDS011;36264;51.296;-0.602;2022-12-28T02:39:55;0.40;;;0.40;;
50355;SDS011;36264;51.296;-0.602;2022-12-28T02:42:24;0.77;;;0.52;;
50355;SDS011;36264;51.296;-0.602;2022-12-28T02:44:52;0.85;;;0.40;;
50355;SDS011;36264;51.296;-0.602;2022-12-28T02:47:37;0.30;;;0.30;;
50355;SDS011;36264;51.296;-0.602;2022-12-28T02:50:25;1.33;;;0.50;;
50355;SDS011;36264;51.296;-0.602;2022-12-28T02:53:22;0.35;;;0.35;;
50355;SDS011;36264;51.296;-0.602;2022-12-28T02:56:14;0.73;;;0.45;;
50355;SDS011;36264;51.296;-0.602;2022-12-28T02:59:36;0.20;;;0.20;;
50355;SDS011;36264;51.296;-0.602;2022-12-28T03:01:45;0.25;;;0.25;;
50355;SDS011;36264;51.296;-0.602;2022-12-28T03:07:16;0.43;;;0.43;;
50355;SDS011;36264;51.296;-0.602;2022-12-28T03:10:11;1.60;;;0.30;;
50355;SDS011;36264;51.296;-0.602;2022-12-28T03:12:55;0.40;;;0.40;;
50355;SDS011;36264;51.296;-0.602;2022-12-28T03:15:58;0.77;;;0.43;;
50355;SDS011;36264;51.296;-0.602;2022-12-28T03:18:28;0.22;;;0.22;;
50355;SDS011;36264;51.296;-0.602;2022-12-28T03:21:15;1.05;;;0.57;;
50355;SDS011;36264;51.296;-0.602;2022-12-28T03:24:00;0.30;;;0.30;;
50355;SDS011;36264;51.296;-0.602;2022-12-28T03:26:46;0.70;;;0.32;;
50355;SDS011;36264;51.296;-0.602;2022-12-28T03:29:35;0.47;;;0.43;;
50355;SDS011;36264;51.296;-0.602;2022-12-28T03:32:22;0.30;;;0.30;;
50355;SDS011;36264;51.296;-0.602;2022-12-28T03:34:48;2.13;;;0.45;;
50355;SDS011;36264;51.296;-0.602;2022-12-28T03:37:24;0.50;;;0.50;;
50355;SDS011;36264;51.296;-0.602;2022-12-28T03:40:02;0.50;;;0.40;;
50355;SDS011;36264;51.296;-0.602;2022-12-28T03:42:35;0.73;;;0.40;;
50355;SDS011;36264;51.296;-0.602;2022-12-28T03:45:37;0.50;;;0.40;;
50355;SDS011;36264;51.296;-0.602;2022-12-28T03:48:05;0.63;;;0.63;;
50355;SDS011;36264;51.296;-0.602;2022-12-28T03:50:33;0.35;;;0.35;;
50355;SDS011;36264;51.296;-0.602;2022-12-28T03:53:02;0.22;;;0.22;;
50355;SDS011;36264;51.296;-0.602;2022-12-28T03:55:27;0.47;;;0.40;;
50355;SDS011;36264;51.296;-0.602;2022-12-28T03:57:54;0.57;;;0.43;;
50355;SDS011;36264;51.296;-0.602;2022-12-28T04:00:20;0.47;;;0.38;;
50355;SDS011;36264;51.296;-0.602;2022-12-28T04:02:45;0.30;;;0.30;;
50355;SDS011;36264;51.296;-0.602;2022-12-28T04:05:10;0.50;;;0.38;;
50355;SDS011;36264;51.296;-0.602;2022-12-28T04:07:36;0.75;;;0.40;;
50355;SDS011;36264;51.296;-0.602;2022-12-28T04:10:01;0.28;;;0.28;;
50355;SDS011;36264;51.296;-0.602;2022-12-28T04:12:26;0.65;;;0.47;;
50355;SDS011;36264;51.296;-0.602;2022-12-28T04:14:52;1.17;;;0.40;;
50355;SDS011;36264;51.296;-0.602;2022-12-28T04:17:17;0.20;;;0.20;;
50355;SDS011;36264;51.296;-0.602;2022-12-28T04:19:42;0.38;;;0.38;;
50355;SDS011;36264;51.296;-0.602;2022-12-28T04:22:08;0.30;;;0.30;;
50355;SDS011;36264;51.296;-0.602;2022-12-28T04:24:33;0.55;;;0.50;;
50355;SDS011;36264;51.296;-0.602;2022-12-28T04:26:58;0.30;;;0.30;;
50355;SDS011;36264;51.296;-0.602;2022-12-28T04:29:24;0.28;;;0.28;;
50355;SDS011;36264;51.296;-0.602;2022-12-28T04:31:49;0.10;;;0.10;;
50355;SDS011;36264;51.296;-0.602;2022-12-28T04:34:15;0.40;;;0.38;;
50355;SDS011;36264;51.296;-0.602;2022-12-28T04:36:40;1.55;;;0.57;;
50355;SDS011;36264;51.296;-0.602;2022-12-28T04:39:07;0.30;;;0.30;;
50355;SDS011;36264;51.296;-0.602;2022-12-28T04:41:33;0.50;;;0.38;;
50355;SDS011;36264;51.296;-0.602;2022-12-28T04:43:58;0.30;;;0.30;;
50355;SDS011;36264;51.296;-0.602;2022-12-28T04:46:24;0.75;;;0.50;;
50355;SDS011;36264;51.296;-0.602;2022-12-28T04:48:49;0.30;;;0.30;;
50355;SDS011;36264;51.296;-0.602;2022-12-28T04:51:17;0.30;;;0.30;;
50355;SDS011;36264;51.296;-0.602;2022-12-28T04:53:45;0.40;;;0.40;;
50355;SDS011;36264;51.296;-0.602;2022-12-28T04:56:10;0.15;;;0.15;;
50355;SDS011;36264;51.296;-0.602;2022-12-28T04:58:37;1.42;;;0.70;;
50355;SDS011;36264;51.296;-0.602;2022-12-28T05:01:03;0.45;;;0.45;;
50355;SDS011;36264;51.296;-0.602;2022-12-28T05:03:29;0.30;;;0.30;;
50355;SDS011;36264;51.296;-0.602;2022-12-28T05:05:58;0.63;;;0.30;;
50355;SDS011;36264;51.296;-0.602;2022-12-28T05:08:24;0.52;;;0.52;;
50355;SDS011;36264;51.296;-0.602;2022-12-28T05:10:49;0.65;;;0.40;;
50355;SDS011;36264;51.296;-0.602;2022-12-28T05:13:15;0.75;;;0.50;;
50355;SDS011;36264;51.296;-0.602;2022-12-28T05:15:40;0.57;;;0.50;;
50355;SDS011;36264;51.296;-0.602;2022-12-28T05:18:05;1.63;;;0.68;;
50355;SDS011;36264;51.296;-0.602;2022-12-28T05:20:31;2.63;;;0.77;;
50355;SDS011;36264;51.296;-0.602;2022-12-28T05:22:56;1.63;;;0.60;;
50355;SDS011;36264;51.296;-0.602;2022-12-28T05:25:21;0.65;;;0.60;;
50355;SDS011;36264;51.296;-0.602;2022-12-28T05:27:47;0.40;;;0.40;;
50355;SDS011;36264;51.296;-0.602;2022-12-28T05:30:12;0.70;;;0.60;;
50355;SDS011;36264;51.296;-0.602;2022-12-28T05:32:37;0.60;;;0.55;;
50355;SDS011;36264;51.296;-0.602;2022-12-28T05:35:03;0.60;;;0.50;;
50355;SDS011;36264;51.296;-0.602;2022-12-28T05:37:28;0.70;;;0.50;;
50355;SDS011;36264;51.296;-0.602;2022-12-28T05:39:54;1.88;;;0.80;;
50355;SDS011;36264;51.296;-0.602;2022-12-28T05:42:19;0.63;;;0.52;;
50355;SDS011;36264;51.296;-0.602;2022-12-28T05:44:44;1.38;;;0.70;;
50355;SDS011;36264;51.296;-0.602;2022-12-28T05:47:10;0.60;;;0.60;;
50355;SDS011;36264;51.296;-0.602;2022-12-28T05:49:35;0.90;;;0.50;;
50355;SDS011;36264;51.296;-0.602;2022-12-28T05:52:01;0.68;;;0.57;;
50355;SDS011;36264;51.296;-0.602;2022-12-28T05:54:26;1.63;;;1.00;;
50355;SDS011;36264;51.296;-0.602;2022-12-28T05:56:51;1.73;;;0.70;;
50355;SDS011;36264;51.296;-0.602;2022-12-28T05:59:17;0.40;;;0.40;;
50355;SDS011;36264;51.296;-0.602;2022-12-28T06:01:42;0.85;;;0.55;;
50355;SDS011;36264;51.296;-0.602;2022-12-28T06:04:16;0.55;;;0.52;;
50355;SDS011;36264;51.296;-0.602;2022-12-28T06:06:43;1.20;;;0.73;;
50355;SDS011;36264;51.296;-0.602;2022-12-28T06:09:10;0.47;;;0.47;;
50355;SDS011;36264;51.296;-0.602;2022-12-28T06:11:36;1.23;;;0.55;;
50355;SDS011;36264;51.296;-0.602;2022-12-28T06:14:02;0.57;;;0.47;;
50355;SDS011;36264;51.296;-0.602;2022-12-28T06:16:30;0.70;;;0.45;;
50355;SDS011;36264;51.296;-0.602;2022-12-28T06:18:57;1.75;;;1.00;;
50355;SDS011;36264;51.296;-0.602;2022-12-28T06:21:24;1.13;;;0.40;;
50355;SDS011;36264;51.296;-0.602;2022-12-28T06:23:52;0.45;;;0.45;;
50355;SDS011;36264;51.296;-0.602;2022-12-28T06:26:19;0.30;;;0.30;;
50355;SDS011;36264;51.296;-0.602;2022-12-28T06:28:45;0.45;;;0.35;;
50355;SDS011;36264;51.296;-0.602;2022-12-28T06:31:12;1.35;;;0.70;;
50355;SDS011;36264;51.296;-0.602;2022-12-28T06:33:40;0.30;;;0.30;;
50355;SDS011;36264;51.296;-0.602;2022-12-28T06:36:16;1.45;;;0.45;;
50355;SDS011;36264;51.296;-0.602;2022-12-28T06:38:44;0.32;;;0.30;;
50355;SDS011;36264;51.296;-0.602;2022-12-28T06:41:11;1.45;;;0.40;;
50355;SDS011;36264;51.296;-0.602;2022-12-28T06:43:38;0.22;;;0.22;;
50355;SDS011;36264;51.296;-0.602;2022-12-28T06:46:04;0.50;;;0.50;;
50355;SDS011;36264;51.296;-0.602;2022-12-28T06:48:30;0.40;;;0.40;;
50355;SDS011;36264;51.296;-0.602;2022-12-28T06:51:02;0.77;;;0.47;;
50355;SDS011;36264;51.296;-0.602;2022-12-28T06:53:30;0.47;;;0.32;;
50355;SDS011;36264;51.296;-0.602;2022-12-28T06:55:58;0.88;;;0.50;;
50355;SDS011;36264;51.296;-0.602;2022-12-28T06:58:26;0.68;;;0.60;;
50355;SDS011;36264;51.296;-0.602;2022-12-28T07:00:52;0.45;;;0.40;;
50355;SDS011;36264;51.296;-0.602;2022-12-28T07:03:22;0.40;;;0.35;;
50355;SDS011;36264;51.296;-0.602;2022-12-28T07:05:48;0.98;;;0.45;;
50355;SDS011;36264;51.296;-0.602;2022-12-28T07:08:13;1.52;;;0.55;;
50355;SDS011;36264;51.296;-0.602;2022-12-28T07:10:39;0.68;;;0.60;;
50355;SDS011;36264;51.296;-0.602;2022-12-28T07:13:05;2.03;;;0.73;;
50355;SDS011;36264;51.296;-0.602;2022-12-28T07:15:31;1.80;;;1.00;;
50355;SDS011;36264;51.296;-0.602;2022-12-28T07:17:58;2.33;;;0.88;;
50355;SDS011;36264;51.296;-0.602;2022-12-28T07:20:23;6.32;;;1.48;;
50355;SDS011;36264;51.296;-0.602;2022-12-28T07:22:49;3.25;;;1.20;;
50355;SDS011;36264;51.296;-0.602;2022-12-28T07:25:14;3.28;;;1.00;;
50355;SDS011;36264;51.296;-0.602;2022-12-28T07:27:40;3.75;;;1.17;;
50355;SDS011;36264;51.296;-0.602;2022-12-28T07:30:05;4.57;;;1.33;;
50355;SDS011;36264;51.296;-0.602;2022-12-28T07:32:31;4.47;;;1.30;;
50355;SDS011;36264;51.296;-0.602;2022-12-28T07:35:00;4.07;;;1.23;;
50355;SDS011;36264;51.296;-0.602;2022-12-28T07:37:26;4.55;;;1.38;;
50355;SDS011;36264;51.296;-0.602;2022-12-28T07:39:51;5.28;;;1.60;;
50355;SDS011;36264;51.296;-0.602;2022-12-28T07:42:16;5.93;;;1.58;;
50355;SDS011;36264;51.296;-0.602;2022-12-28T07:44:42;5.82;;;1.50;;
50355;SDS011;36264;51.296;-0.602;2022-12-28T07:47:09;5.25;;;1.40;;
50355;SDS011;36264;51.296;-0.602;2022-12-28T07:49:35;6.97;;;1.40;;
50355;SDS011;36264;51.296;-0.602;2022-12-28T07:52:01;5.40;;;1.48;;
50355;SDS011;36264;51.296;-0.602;2022-12-28T07:54:27;8.20;;;1.70;;
50355;SDS011;36264;51.296;-0.602;2022-12-28T07:56:52;4.55;;;1.40;;
50355;SDS011;36264;51.296;-0.602;2022-12-28T07:59:17;4.63;;;1.35;;
50355;SDS011;36264;51.296;-0.602;2022-12-28T08:01:43;5.80;;;1.20;;
50355;SDS011;36264;51.296;-0.602;2022-12-28T08:04:10;3.03;;;1.02;;
50355;SDS011;36264;51.296;-0.602;2022-12-28T08:06:38;2.70;;;1.00;;
50355;SDS011;36264;51.296;-0.602;2022-12-28T08:09:05;6.43;;;1.25;;
50355;SDS011;36264;51.296;-0.602;2022-12-28T08:11:32;5.55;;;1.20;;
50355;SDS011;36264;51.296;-0.602;2022-12-28T08:14:00;3.95;;;1.20;;
50355;SDS011;36264;51.296;-0.602;2022-12-28T08:16:26;4.70;;;1.13;;
50355;SDS011;36264;51.296;-0.602;2022-12-28T08:18:54;7.70;;;1.60;;
50355;SDS011;36264;51.296;-0.602;2022-12-28T08:21:21;3.97;;;1.20;;
50355;SDS011;36264;51.296;-0.602;2022-12-28T08:23:47;5.90;;;1.30;;
50355;SDS011;36264;51.296;-0.602;2022-12-28T08:26:34;5.10;;;1.45;;
50355;SDS011;36264;51.296;-0.602;2022-12-28T08:29:00;5.80;;;1.42;;
50355;SDS011;36264;51.296;-0.602;2022-12-28T08:31:28;6.28;;;1.40;;
50355;SDS011;36264;51.296;-0.602;2022-12-28T08:33:56;3.65;;;1.00;;
50355;SDS011;36264;51.296;-0.602;2022-12-28T08:36:24;7.60;;;1.52;;
50355;SDS011;36264;51.296;-0.602;2022-12-28T08:38:50;6.60;;;1.67;;
50355;SDS011;36264;51.296;-0.602;2022-12-28T08:41:16;5.22;;;1.33;;
50355;SDS011;36264;51.296;-0.602;2022-12-28T08:43:44;4.00;;;1.27;;
50355;SDS011;36264;51.296;-0.602;2022-12-28T08:46:11;5.93;;;1.48;;
50355;SDS011;36264;51.296;-0.602;2022-12-28T08:48:38;5.55;;;1.30;;
50355;SDS011;36264;51.296;-0.602;2022-12-28T08:51:05;5.47;;;1.40;;
50355;SDS011;36264;51.296;-0.602;2022-12-28T08:53:32;6.00;;;1.45;;
50355;SDS011;36264;51.296;-0.602;2022-12-28T08:56:02;7.47;;;1.50;;
50355;SDS011;36264;51.296;-0.602;2022-12-28T08:58:28;7.95;;;1.50;;
50355;SDS011;36264;51.296;-0.602;2022-12-28T09:00:54;8.30;;;1.73;;
50355;SDS011;36264;51.296;-0.602;2022-12-28T09:03:19;5.15;;;2.05;;
50355;SDS011;36264;51.296;-0.602;2022-12-28T09:05:44;5.85;;;1.60;;
50355;SDS011;36264;51.296;-0.602;2022-12-28T09:08:10;6.40;;;1.48;;
50355;SDS011;36264;51.296;-0.602;2022-12-28T09:10:35;5.35;;;1.30;;
50355;SDS011;36264;51.296;-0.602;2022-12-28T09:13:00;4.30;;;1.05;;
50355;SDS011;36264;51.296;-0.602;2022-12-28T09:15:26;4.78;;;1.30;;
50355;SDS011;36264;51.296;-0.602;2022-12-28T09:17:51;4.07;;;1.00;;
50355;SDS011;36264;51.296;-0.602;2022-12-28T09:20:17;4.63;;;1.38;;
50355;SDS011;36264;51.296;-0.602;2022-12-28T09:22:42;5.45;;;1.30;;
50355;SDS011;36264;51.296;-0.602;2022-12-28T09:25:07;4.45;;;1.05;;
50355;SDS011;36264;51.296;-0.602;2022-12-28T09:27:33;4.95;;;1.40;;
50355;SDS011;36264;51.296;-0.602;2022-12-28T09:29:58;2.35;;;1.00;;
50355;SDS011;36264;51.296;-0.602;2022-12-28T09:32:23;3.78;;;1.80;;
50355;SDS011;36264;51.296;-0.602;2022-12-28T09:34:49;4.47;;;1.15;;
50355;SDS011;36264;51.296;-0.602;2022-12-28T09:37:14;4.35;;;1.10;;
50355;SDS011;36264;51.296;-0.602;2022-12-28T09:39:39;4.82;;;1.35;;
50355;SDS011;36264;51.296;-0.602;2022-12-28T09:42:07;3.47;;;1.10;;
50355;SDS011;36264;51.296;-0.602;2022-12-28T09:55:24;4.88;;;1.25;;
50355;SDS011;36264;51.296;-0.602;2022-12-28T09:57:52;7.15;;;1.20;;
50355;SDS011;36264;51.296;-0.602;2022-12-28T10:00:20;4.65;;;1.05;;
50355;SDS011;36264;51.296;-0.602;2022-12-28T10:02:50;4.15;;;1.27;;
50355;SDS011;36264;51.296;-0.602;2022-12-28T10:05:20;3.97;;;1.10;;
50355;SDS011;36264;51.296;-0.602;2022-12-28T10:07:46;3.97;;;1.35;;
50355;SDS011;36264;51.296;-0.602;2022-12-28T10:10:13;3.00;;;0.80;;
50355;SDS011;36264;51.296;-0.602;2022-12-28T10:12:41;5.00;;;1.13;;
50355;SDS011;36264;51.296;-0.602;2022-12-28T10:15:09;6.90;;;1.30;;
50355;SDS011;36264;51.296;-0.602;2022-12-28T10:17:37;4.63;;;1.25;;
50355;SDS011;36264;51.296;-0.602;2022-12-28T10:20:02;2.83;;;1.10;;
50355;SDS011;36264;51.296;-0.602;2022-12-28T10:22:34;3.63;;;1.00;;
50355;SDS011;36264;51.296;-0.602;2022-12-28T10:25:09;2.58;;;1.20;;
50355;SDS011;36264;51.296;-0.602;2022-12-28T10:27:37;3.33;;;1.30;;
50355;SDS011;36264;51.296;-0.602;2022-12-28T10:30:05;2.05;;;0.98;;
50355;SDS011;36264;51.296;-0.602;2022-12-28T10:32:54;2.50;;;1.15;;
50355;SDS011;36264;51.296;-0.602;2022-12-28T10:35:23;2.17;;;0.88;;
50355;SDS011;36264;51.296;-0.602;2022-12-28T10:37:54;2.95;;;0.98;;
50355;SDS011;36264;51.296;-0.602;2022-12-28T10:40:29;2.35;;;0.68;;
50355;SDS011;36264;51.296;-0.602;2022-12-28T10:42:57;1.85;;;0.75;;
50355;SDS011;36264;51.296;-0.602;2022-12-28T10:48:24;4.70;;;1.10;;
50355;SDS011;36264;51.296;-0.602;2022-12-28T10:50:57;5.13;;;1.25;;
50355;SDS011;36264;51.296;-0.602;2022-12-28T10:58:30;3.88;;;1.30;;
50355;SDS011;36264;51.296;-0.602;2022-12-28T11:01:00;5.35;;;1.70;;
50355;SDS011;36264;51.296;-0.602;2022-12-28T11:03:29;3.00;;;1.20;;
50355;SDS011;36264;51.296;-0.602;2022-12-28T11:06:06;4.75;;;1.48;;
50355;SDS011;36264;51.296;-0.602;2022-12-28T11:08:40;4.18;;;1.23;;
50355;SDS011;36264;51.296;-0.602;2022-12-28T11:11:15;5.07;;;1.55;;
50355;SDS011;36264;51.296;-0.602;2022-12-28T11:13:43;4.07;;;1.30;;
50355;SDS011;36264;51.296;-0.602;2022-12-28T11:16:11;5.50;;;1.35;;
50355;SDS011;36264;51.296;-0.602;2022-12-28T11:18:38;7.50;;;1.50;;
50355;SDS011;36264;51.296;-0.602;2022-12-28T11:21:07;5.43;;;1.40;;
50355;SDS011;36264;51.296;-0.602;2022-12-28T11:23:35;6.85;;;1.80;;
50355;SDS011;36264;51.296;-0.602;2022-12-28T11:26:03;5.20;;;1.55;;
50355;SDS011;36264;51.296;-0.602;2022-12-28T11:28:28;5.32;;;1.30;;
50355;SDS011;36264;51.296;-0.602;2022-12-28T11:30:54;4.25;;;1.50;;
50355;SDS011;36264;51.296;-0.602;2022-12-28T11:35:53;5.70;;;1.45;;
50355;SDS011;36264;51.296;-0.602;2022-12-28T11:38:42;5.25;;;1.60;;
50355;SDS011;36264;51.296;-0.602;2022-12-28T11:43:50;2.72;;;1.05;;
50355;SDS011;36264;51.296;-0.602;2022-12-28T11:48:47;3.60;;;1.08;;
50355;SDS011;36264;51.296;-0.602;2022-12-28T11:51:18;5.22;;;1.30;;
50355;SDS011;36264;51.296;-0.602;2022-12-28T11:56:10;3.28;;;0.80;;
50355;SDS011;36264;51.296;-0.602;2022-12-28T12:11:49;3.67;;;1.05;;
50355;SDS011;36264;51.296;-0.602;2022-12-28T12:17:13;3.40;;;1.05;;
50355;SDS011;36264;51.296;-0.602;2022-12-28T12:19:57;5.68;;;1.20;;
50355;SDS011;36264;51.296;-0.602;2022-12-28T12:22:30;3.67;;;1.10;;
50355;SDS011;36264;51.296;-0.602;2022-12-28T12:29:58;2.17;;;1.00;;
50355;SDS011;36264;51.296;-0.602;2022-12-28T12:32:37;2.83;;;1.20;;
50355;SDS011;36264;51.296;-0.602;2022-12-28T12:35:30;1.75;;;0.88;;
50355;SDS011;36264;51.296;-0.602;2022-12-28T12:43:34;3.90;;;1.00;;
50355;SDS011;36264;51.296;-0.602;2022-12-28T13:03:22;3.58;;;0.90;;
50355;SDS011;36264;51.296;-0.602;2022-12-28T13:05:53;2.15;;;1.08;;
50355;SDS011;36264;51.296;-0.602;2022-12-28T13:08:23;1.08;;;0.70;;
50355;SDS011;36264;51.296;-0.602;2022-12-28T13:10:51;1.73;;;0.80;;
50355;SDS011;36264;51.296;-0.602;2022-12-28T13:13:24;3.28;;;0.93;;
50355;SDS011;36264;51.296;-0.602;2022-12-28T13:15:56;1.83;;;0.98;;
50355;SDS011;36264;51.296;-0.602;2022-12-28T13:18:25;1.50;;;0.75;;
50355;SDS011;36264;51.296;-0.602;2022-12-28T13:20:52;0.85;;;0.80;;
50355;SDS011;36264;51.296;-0.602;2022-12-28T13:23:25;1.13;;;0.70;;
50355;SDS011;36264;51.296;-0.602;2022-12-28T13:25:53;1.73;;;0.70;;
50355;SDS011;36264;51.296;-0.602;2022-12-28T13:28:27;1.38;;;0.70;;
50355;SDS011;36264;51.296;-0.602;2022-12-28T13:33:35;1.20;;;0.60;;
50355;SDS011;36264;51.296;-0.602;2022-12-28T13:36:11;1.08;;;0.70;;
50355;SDS011;36264;51.296;-0.602;2022-12-28T13:38:38;0.63;;;0.60;;
50355;SDS011;36264;51.296;-0.602;2022-12-28T13:41:04;0.88;;;0.60;;
50355;SDS011;36264;51.296;-0.602;2022-12-28T13:43:49;2.60;;;0.70;;
50355;SDS011;36264;51.296;-0.602;2022-12-28T13:46:23;0.85;;;0.70;;
50355;SDS011;36264;51.296;-0.602;2022-12-28T13:48:50;2.95;;;1.70;;
50355;SDS011;36264;51.296;-0.602;2022-12-28T13:51:18;1.17;;;0.73;;
50355;SDS011;36264;51.296;-0.602;2022-12-28T13:53:46;0.45;;;0.45;;
50355;SDS011;36264;51.296;-0.602;2022-12-28T13:56:17;1.00;;;0.50;;
50355;SDS011;36264;51.296;-0.602;2022-12-28T13:58:47;1.70;;;0.82;;
50355;SDS011;36264;51.296;-0.602;2022-12-28T14:01:19;2.35;;;0.60;;
50355;SDS011;36264;51.296;-0.602;2022-12-28T14:03:48;1.50;;;0.57;;
50355;SDS011;36264;51.296;-0.602;2022-12-28T14:06:15;1.25;;;0.70;;
50355;SDS011;36264;51.296;-0.602;2022-12-28T14:08:43;5.75;;;3.05;;
50355;SDS011;36264;51.296;-0.602;2022-12-28T14:11:10;7.32;;;3.38;;
50355;SDS011;36264;51.296;-0.602;2022-12-28T14:13:36;3.65;;;1.30;;
50355;SDS011;36264;51.296;-0.602;2022-12-28T14:16:03;3.08;;;1.40;;
50355;SDS011;36264;51.296;-0.602;2022-12-28T14:18:30;15.02;;;5.25;;
50355;SDS011;36264;51.296;-0.602;2022-12-28T14:20:57;3.22;;;1.50;;
50355;SDS011;36264;51.296;-0.602;2022-12-28T14:23:28;5.70;;;2.00;;
50355;SDS011;36264;51.296;-0.602;2022-12-28T14:25:56;6.50;;;2.30;;
50355;SDS011;36264;51.296;-0.602;2022-12-28T14:28:32;4.22;;;1.80;;
50355;SDS011;36264;51.296;-0.602;2022-12-28T14:31:01;5.00;;;1.60;;
50355;SDS011;36264;51.296;-0.602;2022-12-28T14:33:28;4.30;;;1.50;;
50355;SDS011;36264;51.296;-0.602;2022-12-28T14:35:58;2.15;;;1.13;;
50355;SDS011;36264;51.296;-0.602;2022-12-28T14:38:37;3.35;;;1.30;;
50355;SDS011;36264;51.296;-0.602;2022-12-28T14:41:31;3.50;;;1.60;;
50355;SDS011;36264;51.296;-0.602;2022-12-28T14:44:00;4.65;;;2.10;;
50355;SDS011;36264;51.296;-0.602;2022-12-28T14:48:58;4.72;;;1.80;;
50355;SDS011;36264;51.296;-0.602;2022-12-28T14:51:31;3.50;;;1.23;;
50355;SDS011;36264;51.296;-0.602;2022-12-28T14:56:41;2.40;;;1.10;;
50355;SDS011;36264;51.296;-0.602;2022-12-28T14:59:15;2.70;;;1.10;;
50355;SDS011;36264;51.296;-0.602;2022-12-28T15:01:44;2.60;;;1.00;;
50355;SDS011;36264;51.296;-0.602;2022-12-28T15:06:53;3.00;;;1.40;;
50355;SDS011;36264;51.296;-0.602;2022-12-28T15:09:19;5.18;;;2.00;;
50355;SDS011;36264;51.296;-0.602;2022-12-28T15:11:45;3.03;;;1.38;;
50355;SDS011;36264;51.296;-0.602;2022-12-28T15:14:10;3.03;;;1.17;;
50355;SDS011;36264;51.296;-0.602;2022-12-28T15:16:36;3.53;;;1.40;;
50355;SDS011;36264;51.296;-0.602;2022-12-28T15:19:02;2.13;;;1.20;;
50355;SDS011;36264;51.296;-0.602;2022-12-28T15:21:28;2.88;;;0.90;;
50355;SDS011;36264;51.296;-0.602;2022-12-28T15:23:54;2.83;;;0.98;;
50355;SDS011;36264;51.296;-0.602;2022-12-28T15:26:21;4.82;;;1.20;;
50355;SDS011;36264;51.296;-0.602;2022-12-28T15:28:48;2.45;;;1.08;;
50355;SDS011;36264;51.296;-0.602;2022-12-28T15:31:15;3.47;;;1.60;;
50355;SDS011;36264;51.296;-0.602;2022-12-28T15:33:43;4.00;;;1.20;;
50355;SDS011;36264;51.296;-0.602;2022-12-28T15:36:11;4.72;;;1.17;;
50355;SDS011;36264;51.296;-0.602;2022-12-28T15:38:44;3.03;;;1.20;;
50355;SDS011;36264;51.296;-0.602;2022-12-28T15:41:11;6.68;;;2.13;;
50355;SDS011;36264;51.296;-0.602;2022-12-28T15:43:55;3.85;;;1.50;;
50355;SDS011;36264;51.296;-0.602;2022-12-28T15:46:20;7.78;;;2.05;;
50355;SDS011;36264;51.296;-0.602;2022-12-28T15:48:46;7.75;;;2.60;;
50355;SDS011;36264;51.296;-0.602;2022-12-28T15:51:12;6.47;;;1.77;;
50355;SDS011;36264;51.296;-0.602;2022-12-28T15:53:38;6.75;;;1.80;;
50355;SDS011;36264;51.296;-0.602;2022-12-28T15:56:03;6.40;;;1.63;;
50355;SDS011;36264;51.296;-0.602;2022-12-28T15:58:29;7.38;;;1.83;;
50355;SDS011;36264;51.296;-0.602;2022-12-28T16:00:54;7.13;;;1.95;;
50355;SDS011;36264;51.296;-0.602;2022-12-28T16:03:19;9.20;;;2.08;;
50355;SDS011;36264;51.296;-0.602;2022-12-28T16:05:46;7.50;;;2.40;;
50355;SDS011;36264;51.296;-0.602;2022-12-28T16:08:11;6.40;;;2.08;;
50355;SDS011;36264;51.296;-0.602;2022-12-28T16:10:37;12.73;;;2.95;;
50355;SDS011;36264;51.296;-0.602;2022-12-28T16:13:02;9.70;;;2.65;;
50355;SDS011;36264;51.296;-0.602;2022-12-28T16:15:27;8.80;;;2.63;;
50355;SDS011;36264;51.296;-0.602;2022-12-28T16:17:53;11.50;;;2.35;;